Time;durP1;ratioP1;P1;durP2;ratioP2;P2;SDS_P1;SDS_P2;PMS_P1;PMS_P2;Temp;Humidity;BMP_temperature;BMP_pressure;BME280_temperature;BME280_humidity;BME280_pressure;Samples;Min_cycle;Max_cycle;Signal;HPM_P1;HPM_P2
2021/07/28 00:02:40;;;;;;;127.32;96.05;;;;;;;;;;4140584;34;20048;-94
2021/07/28 00:05:38;;;;;;;94.65;84.55;;;;;;;;;;4145691;34;20160;-94
2021/07/28 00:08:14;;;;;;;109.65;87.65;;;;;;;;;;4148292;34;20072;-95
2021/07/28 00:10:59;;;;;;;105.75;87.88;;;;;;;;;;4156469;34;20092;-95
2021/07/28 00:13:48;;;;;;;104.57;86.68;;;;;;;;;;4153279;34;20076;-95
2021/07/28 00:16:39;;;;;;;100.62;85.97;;;;;;;;;;4145591;34;20044;-95
2021/07/28 00:19:20;;;;;;;97.37;77.32;;;;;;;;;;4142463;34;20098;-96
2021/07/28 00:24:55;;;;;;;121.97;89.72;;;;;;;;;;4154218;34;20059;-96
2021/07/28 00:28:04;;;;;;;115.35;87.45;;;;;;;;;;4115571;34;20080;-96
2021/07/28 00:30:46;;;;;;;119.75;88.40;;;;;;;;;;4149731;34;20044;-96
2021/07/28 00:33:21;;;;;;;116.60;89.28;;;;;;;;;;4157062;34;20067;-96
2021/07/28 00:36:06;;;;;;;117.37;88.55;;;;;;;;;;4145663;34;20041;-96
2021/07/28 00:38:49;;;;;;;115.50;87.97;;;;;;;;;;4158086;34;20152;-95
2021/07/28 00:41:30;;;;;;;119.37;85.57;;;;;;;;;;4145009;34;20095;-96
2021/07/28 00:44:25;;;;;;;90.47;76.05;;;;;;;;;;4149123;34;20040;-96
2021/07/28 00:47:25;;;;;;;;;;;;;;;;;;;;;
2021/07/28 00:50:14;;;;;;;95.07;79.03;;;;;;;;;;4148120;34;20057;-96
2021/07/28 00:52:58;;;;;;;96.87;79.87;;;;;;;;;;4151546;34;20041;-94
2021/07/28 00:56:19;;;;;;;96.30;71.85;;;;;;;;;;4149333;34;20037;-96
2021/07/28 00:59:03;;;;;;;100.00;76.87;;;;;;;;;;4152431;34;20052;-96
2021/07/28 01:02:26;;;;;;;111.82;86.63;;;;;;;;;;4152329;34;20495;-95
2021/07/28 01:05:33;;;;;;;118.78;94.28;;;;;;;;;;4148493;34;20039;-95
2021/07/28 01:08:18;;;;;;;108.07;86.80;;;;;;;;;;4164490;34;20067;-95
2021/07/28 01:11:23;;;;;;;131.30;101.30;;;;;;;;;;4142336;34;20072;-96
2021/07/28 01:14:07;;;;;;;136.32;104.85;;;;;;;;;;4156125;34;20103;-96
2021/07/28 01:16:44;;;;;;;;;;;;;;;;;;4151456;34;20067;-95
2021/07/28 01:19:18;;;;;;;;;;;;;;;;;;4164125;34;20020;-96
2021/07/28 01:22:08;;;;;;;118.97;102.45;;;;;;;;;;4154055;34;19987;-96
2021/07/28 01:24:44;;;;;;;123.05;103.65;;;;;;;;;;4145432;34;20078;-96
2021/07/28 01:27:19;;;;;;;113.93;102.00;;;;;;;;;;4146405;34;20079;-96
2021/07/28 01:30:01;;;;;;;114.93;103.32;;;;;;;;;;4136132;34;20118;-96
2021/07/28 01:32:36;;;;;;;116.57;104.05;;;;;;;;;;4144194;34;20142;-95
2021/07/28 01:35:16;;;;;;;148.55;114.28;;;;;;;;;;4152886;34;20073;-95
2021/07/28 01:38:25;;;;;;;126.18;94.62;;;;;;;;;;4145558;34;20063;-96
2021/07/28 01:41:19;;;;;;;122.32;97.25;;;;;;;;;;4161483;34;20049;-96
2021/07/28 01:44:19;;;;;;;126.93;102.22;;;;;;;;;;4147184;34;20490;-96
2021/07/28 01:47:27;;;;;;;125.03;103.55;;;;;;;;;;4150195;34;20049;-96
2021/07/28 01:50:26;;;;;;;111.65;98.03;;;;;;;;;;4145946;34;20124;-96
2021/07/28 01:53:10;;;;;;;116.62;103.68;;;;;;;;;;4149865;34;20105;-96
2021/07/28 01:56:08;;;;;;;110.03;97.78;;;;;;;;;;4148132;34;20149;-96
2021/07/28 01:59:08;;;;;;;111.10;99.10;;;;;;;;;;4149142;34;20067;-96
2021/07/28 02:01:38;;;;;;;109.25;97.20;;;;;;;;;;4151712;34;20014;-96
2021/07/28 02:07:25;;;;;;;97.53;86.40;;;;;;;;;;4164686;34;20036;-95
2021/07/28 02:10:47;;;;;;;94.85;84.43;;;;;;;;;;4144254;34;20052;-96
2021/07/28 02:13:50;;;;;;;102.87;89.03;;;;;;;;;;4141849;34;20049;-96
2021/07/28 02:20:11;;;;;;;109.18;94.60;;;;;;;;;;4158694;34;20474;-96
2021/07/28 02:23:11;;;;;;;;;;;;;;;;;;4142904;34;20071;-96
2021/07/28 02:25:47;;;;;;;113.03;98.82;;;;;;;;;;4151939;34;20471;-96
2021/07/28 02:28:46;;;;;;;114.18;101.80;;;;;;;;;;4152029;34;20064;-95
2021/07/28 02:32:28;;;;;;;109.93;90.80;;;;;;;;;;4133803;34;20052;-95
2021/07/28 02:35:10;;;;;;;128.93;102.00;;;;;;;;;;4161161;34;20056;-96
2021/07/28 02:37:55;;;;;;;116.05;92.28;;;;;;;;;;4146883;34;20102;-95
2021/07/28 02:40:48;;;;;;;121.30;107.12;;;;;;;;;;4153537;34;20046;-95
2021/07/28 02:43:33;;;;;;;120.90;102.57;;;;;;;;;;4147572;34;20036;-96
2021/07/28 02:46:24;;;;;;;118.22;98.50;;;;;;;;;;4146344;34;20053;-96
2021/07/28 02:49:09;;;;;;;116.82;98.05;;;;;;;;;;4148343;34;20052;-95
2021/07/28 02:52:24;;;;;;;115.82;102.72;;;;;;;;;;4167731;34;20052;-96
2021/07/28 02:55:31;;;;;;;139.62;107.90;;;;;;;;;;4144174;34;20056;-95
2021/07/28 02:58:31;;;;;;;137.57;104.78;;;;;;;;;;4155443;34;20072;-95
2021/07/28 03:01:23;;;;;;;143.85;105.82;;;;;;;;;;4161686;34;20080;-96
2021/07/28 03:04:16;;;;;;;145.65;108.70;;;;;;;;;;4159593;34;20102;-95
2021/07/28 03:07:21;;;;;;;116.80;92.90;;;;;;;;;;4147385;34;20473;-96
2021/07/28 03:10:04;;;;;;;115.00;91.22;;;;;;;;;;4148766;34;20045;-96
2021/07/28 03:15:32;;;;;;;111.65;89.13;;;;;;;;;;4157082;34;20064;-95
2021/07/28 03:18:19;;;;;;;111.70;92.40;;;;;;;;;;4141721;34;20064;-96
2021/07/28 03:21:04;;;;;;;111.85;98.15;;;;;;;;;;4136971;34;20084;-95
2021/07/28 03:23:56;;;;;;;105.97;95.22;;;;;;;;;;4147612;34;20119;-96
2021/07/28 03:26:54;;;;;;;105.93;95.38;;;;;;;;;;4128010;34;20068;-96
2021/07/28 03:29:54;;;;;;;105.28;94.82;;;;;;;;;;4139182;34;20095;-96
2021/07/28 03:32:29;;;;;;;134.30;100.70;;;;;;;;;;4160783;34;20056;-94
2021/07/28 03:35:14;;;;;;;132.45;102.05;;;;;;;;;;4150805;34;20147;-95
2021/07/28 03:37:57;;;;;;;132.23;99.97;;;;;;;;;;4145799;34;20707;-96
2021/07/28 03:40:44;;;;;;;135.02;99.78;;;;;;;;;;4141768;34;20045;-96
2021/07/28 03:43:23;;;;;;;129.68;98.15;;;;;;;;;;4145244;34;20099;-95
2021/07/28 03:46:06;;;;;;;127.12;92.85;;;;;;;;;;4146945;34;20032;-94
2021/07/28 03:48:48;;;;;;;125.43;91.35;;;;;;;;;;4160842;34;20442;-96
2021/07/28 03:51:31;;;;;;;119.80;90.80;;;;;;;;;;4162767;34;20387;-96
2021/07/28 03:54:16;;;;;;;101.55;77.65;;;;;;;;;;4145639;34;21335;-96
2021/07/28 03:56:58;;;;;;;121.28;91.37;;;;;;;;;;4136984;34;20084;-96
2021/07/28 03:59:48;;;;;;;95.28;85.55;;;;;;;;;;4144148;34;20127;-95
2021/07/28 04:02:32;;;;;;;100.10;89.45;;;;;;;;;;4148519;34;20057;-96
2021/07/28 04:05:16;;;;;;;110.05;96.50;;;;;;;;;;4145675;34;20048;-96
2021/07/28 04:08:01;;;;;;;119.50;103.62;;;;;;;;;;4152939;34;20071;-96
2021/07/28 04:11:22;;;;;;;119.10;98.57;;;;;;;;;;4159650;34;20044;-96
2021/07/28 04:14:27;;;;;;;120.50;96.55;;;;;;;;;;4159663;34;20044;-96
2021/07/28 04:17:21;;;;;;;124.87;98.35;;;;;;;;;;4151047;34;20067;-96
2021/07/28 04:20:19;;;;;;;126.65;97.95;;;;;;;;;;4156957;34;20052;-96
2021/07/28 04:23:59;;;;;;;115.00;93.10;;;;;;;;;;4155203;34;20642;-95
2021/07/28 04:26:36;;;;;;;152.85;109.12;;;;;;;;;;4157197;34;20740;-96
2021/07/28 04:29:19;;;;;;;147.05;109.80;;;;;;;;;;4164833;34;20479;-95
2021/07/28 04:31:53;;;;;;;147.32;107.90;;;;;;;;;;4140372;34;20044;-94
2021/07/28 04:34:29;;;;;;;142.52;105.95;;;;;;;;;;4160195;34;20109;-96
2021/07/28 04:37:04;;;;;;;109.30;97.70;;;;;;;;;;4144868;34;20057;-96
2021/07/28 04:39:55;;;;;;;106.90;94.80;;;;;;;;;;4148250;34;20568;-96
2021/07/28 04:42:47;;;;;;;112.93;97.53;;;;;;;;;;4146515;34;20132;-96
2021/07/28 04:45:30;;;;;;;109.87;97.28;;;;;;;;;;4162178;34;20053;-96
2021/07/28 04:48:29;;;;;;;107.80;95.60;;;;;;;;;;4138554;34;20073;-96
2021/07/28 04:51:26;;;;;;;110.75;98.72;;;;;;;;;;4139179;34;20087;-96
2021/07/28 04:54:10;;;;;;;119.28;104.45;;;;;;;;;;4147352;34;20063;-96
2021/07/28 04:56:55;;;;;;;122.05;106.70;;;;;;;;;;4149327;34;20120;-95
2021/07/28 04:59:29;;;;;;;115.60;96.75;;;;;;;;;;4143443;34;20080;-95
2021/07/28 05:02:04;;;;;;;114.68;96.28;;;;;;;;;;4144404;34;20060;-96
2021/07/28 05:04:54;;;;;;;114.10;97.28;;;;;;;;;;4159585;34;20078;-96
2021/07/28 05:07:39;;;;;;;112.72;100.22;;;;;;;;;;4150328;34;20451;-96
2021/07/28 05:10:26;;;;;;;117.85;105.43;;;;;;;;;;4130211;34;20076;-96
2021/07/28 05:12:57;;;;;;;111.43;97.72;;;;;;;;;;4151814;34;20041;-96
2021/07/28 05:15:39;;;;;;;111.47;91.50;;;;;;;;;;4146187;34;20076;-96
2021/07/28 05:18:32;;;;;;;111.75;93.22;;;;;;;;;;4154608;34;20045;-94
2021/07/28 05:21:15;;;;;;;117.18;94.93;;;;;;;;;;4144546;34;20116;-96
2021/07/28 05:24:16;;;;;;;118.15;96.03;;;;;;;;;;4148798;34;20074;-96
2021/07/28 05:26:49;;;;;;;108.43;96.63;;;;;;;;;;4162779;34;20049;-95
2021/07/28 05:29:39;;;;;;;142.20;105.47;;;;;;;;;;4145325;34;20080;-96
2021/07/28 05:32:23;;;;;;;149.75;108.07;;;;;;;;;;4133200;34;20067;-96
2021/07/28 05:35:13;;;;;;;115.10;89.80;;;;;;;;;;4147846;34;20033;-96
2021/07/28 05:38:05;;;;;;;116.03;88.75;;;;;;;;;;4146513;34;20044;-96
2021/07/28 05:40:56;;;;;;;114.35;87.95;;;;;;;;;;4151192;34;20037;-95
2021/07/28 05:43:38;;;;;;;114.75;87.78;;;;;;;;;;4147812;34;20083;-95
2021/07/28 05:46:17;;;;;;;112.03;86.35;;;;;;;;;;4153740;34;20443;-95
2021/07/28 05:48:49;;;;;;;113.55;84.25;;;;;;;;;;4145850;34;20761;-96
2021/07/28 05:51:32;;;;;;;109.12;82.80;;;;;;;;;;4148546;34;20129;-96
2021/07/28 05:54:40;;;;;;;96.57;85.68;;;;;;;;;;4159862;34;20056;-96
2021/07/28 05:57:51;;;;;;;92.72;82.68;;;;;;;;;;4159139;34;20045;-95
2021/07/28 06:00:31;;;;;;;95.50;84.68;;;;;;;;;;4151327;34;20098;-95
2021/07/28 06:03:06;;;;;;;100.18;85.90;;;;;;;;;;4133436;34;20132;-95
2021/07/28 06:05:45;;;;;;;106.90;89.87;;;;;;;;;;4145899;34;20496;-96
2021/07/28 06:08:15;;;;;;;105.30;82.80;;;;;;;;;;4153548;34;20191;-95
2021/07/28 06:10:50;;;;;;;126.05;97.25;;;;;;;;;;4140648;34;20044;-95
2021/07/28 06:13:25;;;;;;;128.75;101.68;;;;;;;;;;4151848;34;20096;-95
2021/07/28 06:16:16;;;;;;;140.52;111.50;;;;;;;;;;4145686;34;20046;-96
2021/07/28 06:18:52;;;;;;;149.70;117.97;;;;;;;;;;4151242;34;20044;-95
2021/07/28 06:21:36;;;;;;;159.87;124.70;;;;;;;;;;4140832;34;20048;-96
2021/07/28 06:24:10;;;;;;;162.60;126.53;;;;;;;;;;4148301;34;20916;-96
2021/07/28 06:26:45;;;;;;;167.32;128.07;;;;;;;;;;4146690;34;20100;-95
2021/07/28 06:29:26;;;;;;;168.10;131.45;;;;;;;;;;4146209;34;20048;-95
2021/07/28 06:32:20;;;;;;;167.40;127.47;;;;;;;;;;4144161;34;20099;-96
2021/07/28 06:34:55;;;;;;;135.75;120.37;;;;;;;;;;4139033;34;20094;-95
2021/07/28 06:37:30;;;;;;;133.77;119.68;;;;;;;;;;4145647;34;20113;-95
2021/07/28 06:40:12;;;;;;;148.50;122.50;;;;;;;;;;4136368;34;20041;-96
2021/07/28 06:42:59;;;;;;;;;;;;;;;;;;;;;
2021/07/28 06:45:46;;;;;;;150.95;122.07;;;;;;;;;;4148790;34;20087;-95
2021/07/28 06:48:29;;;;;;;142.82;107.22;;;;;;;;;;4144088;34;20103;-96
2021/07/28 06:51:16;;;;;;;138.43;107.40;;;;;;;;;;4146432;34;20137;-96
2021/07/28 06:53:54;;;;;;;166.02;124.65;;;;;;;;;;4147758;34;20465;-96
2021/07/28 06:56:55;;;;;;;170.00;125.75;;;;;;;;;;4150039;34;20092;-96
2021/07/28 06:59:30;;;;;;;172.80;125.82;;;;;;;;;;4154351;34;20493;-96
2021/07/28 07:02:15;;;;;;;161.45;122.82;;;;;;;;;;4155944;34;20107;-96
2021/07/28 07:05:00;;;;;;;164.10;121.72;;;;;;;;;;4155780;34;20044;-95
2021/07/28 07:08:17;;;;;;;;;;;;;;;;;;;;;
2021/07/28 07:11:03;;;;;;;132.37;100.20;;;;;;;;;;4152223;34;20044;-95
2021/07/28 07:13:46;;;;;;;137.93;112.22;;;;;;;;;;4156049;34;20041;-95
2021/07/28 07:16:21;;;;;;;135.27;114.72;;;;;;;;;;4150681;34;20044;-96
2021/07/28 07:19:19;;;;;;;137.45;115.10;;;;;;;;;;4159403;34;20105;-96
2021/07/28 07:21:50;;;;;;;127.22;113.68;;;;;;;;;;4146104;34;20045;-96
2021/07/28 07:24:22;;;;;;;127.70;113.30;;;;;;;;;;4136981;34;20091;-96
2021/07/28 07:26:55;;;;;;;167.20;125.53;;;;;;;;;;4149650;34;20067;-95
2021/07/28 07:29:33;;;;;;;131.45;103.45;;;;;;;;;;4145917;34;20057;-95
2021/07/28 07:35:04;;;;;;;122.60;91.07;;;;;;;;;;4158834;34;20455;-95
2021/07/28 07:37:42;;;;;;;107.50;86.82;;;;;;;;;;4162179;34;20360;-96
2021/07/28 07:40:19;;;;;;;113.28;90.62;;;;;;;;;;4152434;34;20053;-95
2021/07/28 07:42:55;;;;;;;108.57;89.05;;;;;;;;;;4161942;34;20103;-96
2021/07/28 07:45:27;;;;;;;101.93;89.93;;;;;;;;;;4148617;34;20051;-95
2021/07/28 07:48:07;;;;;;;99.13;84.30;;;;;;;;;;4162318;34;20106;-96
2021/07/28 07:56:36;;;;;;;95.32;72.30;;;;;;;;;;4140669;34;20064;-96
2021/07/28 07:59:53;;;;;;;97.78;74.43;;;;;;;;;;4120387;34;20052;-95
2021/07/28 08:02:27;;;;;;;81.45;66.35;;;;;;;;;;4163896;34;20106;-95
2021/07/28 08:05:00;;;;;;;87.28;67.25;;;;;;;;;;4148476;34;20036;-96
2021/07/28 08:07:36;;;;;;;86.97;67.40;;;;;;;;;;4153321;34;20052;-96
2021/07/28 08:10:41;;;;;;;88.57;65.95;;;;;;;;;;4153087;34;20090;-96
2021/07/28 08:13:18;;;;;;;99.00;75.47;;;;;;;;;;4159058;34;20084;-96
2021/07/28 08:22:57;;;;;;;129.12;68.78;;;;;;;;;;4145147;34;20044;-95
2021/07/28 08:25:51;;;;;;;138.85;71.70;;;;;;;;;;4147090;34;20087;-96
2021/07/28 08:28:32;;;;;;;133.95;67.50;;;;;;;;;;4151255;34;20037;-96
2021/07/28 08:31:06;;;;;;;107.47;61.35;;;;;;;;;;4151325;34;20086;-96
2021/07/28 08:33:58;;;;;;;101.62;65.65;;;;;;;;;;4153040;34;20045;-96
2021/07/28 08:37:20;;;;;;;;;;;;;;;;;;;;;
2021/07/28 08:39:54;;;;;;;108.30;76.22;;;;;;;;;;4155020;34;20102;-95
2021/07/28 08:42:59;;;;;;;108.37;66.72;;;;;;;;;;4142204;34;20084;-96
2021/07/28 08:46:10;;;;;;;103.60;59.75;;;;;;;;;;4154682;34;20088;-96
2021/07/28 08:49:02;;;;;;;146.15;81.30;;;;;;;;;;4145838;34;20080;-96
2021/07/28 08:51:49;;;;;;;147.43;81.65;;;;;;;;;;4146434;34;20044;-96
2021/07/28 08:54:44;;;;;;;145.82;84.75;;;;;;;;;;4150709;34;20049;-96
2021/07/28 08:57:29;;;;;;;153.05;90.55;;;;;;;;;;4156950;34;20654;-96
2021/07/28 09:00:07;;;;;;;141.52;86.53;;;;;;;;;;4146443;34;20082;-94
2021/07/28 09:03:03;;;;;;;142.40;90.10;;;;;;;;;;4143717;34;20032;-96
2021/07/28 09:05:43;;;;;;;145.27;88.45;;;;;;;;;;4157801;34;20060;-96
2021/07/28 09:08:36;;;;;;;150.73;90.95;;;;;;;;;;4153702;34;20186;-96
2021/07/28 09:11:35;;;;;;;134.37;81.00;;;;;;;;;;4156114;34;20045;-95
2021/07/28 09:14:32;;;;;;;134.45;81.80;;;;;;;;;;4145300;34;20061;-96
2021/07/28 09:17:47;;;;;;;133.12;83.97;;;;;;;;;;4155019;34;20058;-96
2021/07/28 09:20:30;;;;;;;110.03;85.93;;;;;;;;;;4145166;34;20033;-96
2021/07/28 09:23:20;;;;;;;110.43;85.12;;;;;;;;;;4158062;34;20752;-96
2021/07/28 09:26:05;;;;;;;167.27;94.50;;;;;;;;;;4167644;34;20072;-95
2021/07/28 09:29:03;;;;;;;155.32;90.68;;;;;;;;;;4164991;34;20044;-96
2021/07/28 09:31:53;;;;;;;155.98;88.60;;;;;;;;;;4168999;34;20110;-96
2021/07/28 09:35:01;;;;;;;164.73;91.32;;;;;;;;;;4158054;34;20782;-96
2021/07/28 09:37:41;;;;;;;122.70;72.85;;;;;;;;;;4166370;34;20037;-96
2021/07/28 09:40:27;;;;;;;152.10;89.25;;;;;;;;;;4165717;34;20032;-96
2021/07/28 09:43:23;;;;;;;151.23;89.90;;;;;;;;;;4146027;34;20048;-96
2021/07/28 09:46:18;;;;;;;147.18;87.15;;;;;;;;;;4156639;34;20037;-96
2021/07/28 09:49:22;;;;;;;145.15;86.22;;;;;;;;;;4140120;34;20053;-96
2021/07/28 09:53:14;;;;;;;119.35;75.30;;;;;;;;;;4154398;34;20112;-96
2021/07/28 09:55:56;;;;;;;101.93;76.97;;;;;;;;;;4158575;34;20096;-96
2021/07/28 09:58:53;;;;;;;95.20;76.32;;;;;;;;;;4152626;34;20048;-96
2021/07/28 10:01:32;;;;;;;119.60;76.03;;;;;;;;;;4133914;34;20096;-96
2021/07/28 10:04:23;;;;;;;133.45;80.60;;;;;;;;;;4153978;34;20117;-96
2021/07/28 10:07:30;;;;;;;148.80;89.15;;;;;;;;;;4120953;34;20112;-96
2021/07/28 10:11:13;;;;;;;131.73;83.60;;;;;;;;;;4112600;35;20038;-96
2021/07/28 10:14:27;;;;;;;121.25;75.30;;;;;;;;;;4119363;34;20246;-96
2021/07/28 10:17:12;;;;;;;126.55;75.45;;;;;;;;;;4108426;34;20053;-96
2021/07/28 10:19:52;;;;;;;127.25;79.60;;;;;;;;;;4103543;34;20867;-96
2021/07/28 10:22:38;;;;;;;165.07;93.00;;;;;;;;;;4136521;34;20095;-96
2021/07/28 10:25:17;;;;;;;169.07;97.32;;;;;;;;;;4156299;34;20070;-95
2021/07/28 10:31:12;;;;;;;125.55;79.72;;;;;;;;;;4162597;34;20463;-96
2021/07/28 10:34:06;;;;;;;102.62;82.72;;;;;;;;;;4147222;34;20819;-95
2021/07/28 10:37:20;;;;;;;;;;;;;;;;;;;;;
2021/07/28 10:40:32;;;;;;;106.12;84.07;;;;;;;;;;4145933;34;20049;-96
2021/07/28 10:43:21;;;;;;;131.35;80.32;;;;;;;;;;4150763;34;20122;-96
2021/07/28 10:46:18;;;;;;;127.00;82.50;;;;;;;;;;4148629;34;20048;-96
2021/07/28 10:49:36;;;;;;;137.23;85.22;;;;;;;;;;4157803;34;20090;-95
2021/07/28 10:52:38;;;;;;;177.15;101.60;;;;;;;;;;4159169;34;20098;-96
2021/07/28 10:58:59;;;;;;;178.00;106.00;;;;;;;;;;4158743;34;20044;-95
2021/07/28 11:05:19;;;;;;;174.70;104.45;;;;;;;;;;4169298;34;20052;-96
2021/07/28 11:08:20;;;;;;;181.18;104.30;;;;;;;;;;4171709;34;20044;-96
2021/07/28 11:12:02;;;;;;;153.60;97.40;;;;;;;;;;4160107;34;20052;-96
2021/07/28 11:24:57;;;;;;;142.52;96.03;;;;;;;;;;4165227;34;20154;-95
2021/07/28 11:28:29;;;;;;;130.25;96.50;;;;;;;;;;4170727;34;20033;-96
2021/07/28 11:31:38;;;;;;;111.30;85.93;;;;;;;;;;4172507;34;20093;-96
2021/07/28 11:34:35;;;;;;;97.72;82.97;;;;;;;;;;4159199;34;20052;-96
2021/07/28 11:37:34;;;;;;;50.88;42.15;;;;;;;;;;4172481;34;20102;-96
2021/07/28 11:41:16;;;;;;;10.38;5.37;;;;;;;;;;4131272;34;20783;-96
2021/07/28 11:44:26;;;;;;;12.18;3.53;;;;;;;;;;4127861;34;20136;-96
2021/07/28 11:48:37;;;;;;;12.70;3.70;;;;;;;;;;4129903;34;20096;-96
2021/07/28 11:51:45;;;;;;;13.68;3.17;;;;;;;;;;4116521;34;20671;-96
2021/07/28 11:54:56;;;;;;;11.18;3.17;;;;;;;;;;4130452;34;20080;-96
2021/07/28 11:58:24;;;;;;;17.87;3.40;;;;;;;;;;4132136;34;20215;-96
2021/07/28 12:01:43;;;;;;;10.02;2.62;;;;;;;;;;4132359;34;20050;-96
2021/07/28 12:08:40;;;;;;;11.05;2.65;;;;;;;;;;4133512;34;20045;-96
2021/07/28 12:12:05;;;;;;;8.20;2.10;;;;;;;;;;4149786;34;20111;-96
2021/07/28 12:15:43;;;;;;;;;;;;;;;;;;4155226;34;20070;-96
2021/07/28 12:18:54;;;;;;;8.88;2.53;;;;;;;;;;4166105;34;19944;-96
2021/07/28 12:25:54;;;;;;;11.30;2.78;;;;;;;;;;4171841;34;20064;-95
2021/07/28 12:28:53;;;;;;;13.85;2.75;;;;;;;;;;4172056;34;20116;-96
2021/07/28 12:32:05;;;;;;;11.02;3.00;;;;;;;;;;4151934;34;20049;-96
2021/07/28 12:35:02;;;;;;;12.80;2.60;;;;;;;;;;4155540;34;20041;-96
2021/07/28 12:37:46;;;;;;;9.10;2.45;;;;;;;;;;4154899;34;20111;-96
2021/07/28 12:41:12;;;;;;;12.55;2.72;;;;;;;;;;4160396;34;20707;-96
2021/07/28 12:43:52;;;;;;;9.02;2.42;;;;;;;;;;4155840;34;20110;-96
2021/07/28 12:47:00;;;;;;;11.75;3.15;;;;;;;;;;4145091;34;20037;-96
2021/07/28 12:50:02;;;;;;;14.75;3.55;;;;;;;;;;4147678;34;20060;-96
2021/07/28 12:59:11;;;;;;;7.00;2.50;;;;;;;;;;4170925;34;20044;-96
2021/07/28 13:05:29;;;;;;;;;;;;;;;;;;4166717;34;20070;-96
2021/07/28 13:08:41;;;;;;;13.73;3.83;;;;;;;;;;4156798;34;19956;-96
2021/07/28 13:14:52;;;;;;;14.05;7.97;;;;;;;;;;4173713;34;20074;-96
2021/07/28 13:54:27;;;;;;;20.42;2.90;;;;;;;;;;4837549;28;20083;-84
2021/07/28 13:57:15;;;;;;;16.60;3.17;;;;;;;;;;4136956;34;20120;-85
2021/07/28 13:59:45;;;;;;;15.93;3.10;;;;;;;;;;4138883;34;20056;-84
2021/07/28 14:02:15;;;;;;;12.13;2.67;;;;;;;;;;4142400;34;20071;-85
2021/07/28 14:04:44;;;;;;;11.18;2.62;;;;;;;;;;4137161;34;20248;-85
2021/07/28 14:07:12;;;;;;;13.82;3.08;;;;;;;;;;4142243;34;20432;-85
2021/07/28 14:09:41;;;;;;;12.20;2.50;;;;;;;;;;4139436;34;20113;-85
2021/07/28 14:12:10;;;;;;;16.30;3.35;;;;;;;;;;4135611;34;20111;-85
2021/07/28 14:14:38;;;;;;;13.20;3.25;;;;;;;;;;4137178;34;20096;-85
2021/07/28 14:17:07;;;;;;;11.38;2.78;;;;;;;;;;4126658;34;22107;-85
2021/07/28 14:19:37;;;;;;;9.68;2.90;;;;;;;;;;4133178;34;20112;-84
2021/07/28 14:22:05;;;;;;;16.30;3.20;;;;;;;;;;4135589;34;20196;-85
2021/07/28 14:24:34;;;;;;;13.73;3.15;;;;;;;;;;4119524;34;20251;-85
2021/07/28 14:27:04;;;;;;;15.50;3.22;;;;;;;;;;4133454;34;20061;-84
2021/07/28 14:29:32;;;;;;;14.07;2.80;;;;;;;;;;4133044;34;20049;-85
2021/07/28 14:32:01;;;;;;;16.58;3.15;;;;;;;;;;4136218;34;20045;-84
2021/07/28 14:34:29;;;;;;;15.18;3.05;;;;;;;;;;4134013;34;20060;-85
2021/07/28 14:36:59;;;;;;;15.45;3.35;;;;;;;;;;4136870;34;20149;-85
2021/07/28 14:39:31;;;;;;;14.07;3.10;;;;;;;;;;4134964;34;21709;-85
2021/07/28 14:42:00;;;;;;;12.32;3.30;;;;;;;;;;4134123;34;20049;-84
2021/07/28 14:44:28;;;;;;;15.68;3.22;;;;;;;;;;4133789;34;20088;-85
2021/07/28 14:46:56;;;;;;;17.65;3.45;;;;;;;;;;4132467;34;20509;-85
2021/07/28 14:49:25;;;;;;;13.45;3.10;;;;;;;;;;4132186;34;20079;-86
2021/07/28 14:51:56;;;;;;;15.60;3.47;;;;;;;;;;4134765;34;20100;-84
2021/07/28 14:54:25;;;;;;;19.17;3.37;;;;;;;;;;4135800;34;20041;-85
2021/07/28 14:56:54;;;;;;;13.57;3.20;;;;;;;;;;4136690;34;20411;-84
2021/07/28 14:59:22;;;;;;;14.48;2.85;;;;;;;;;;4134126;34;20625;-85
2021/07/28 15:01:51;;;;;;;14.65;2.80;;;;;;;;;;4137768;34;20147;-85
2021/07/28 15:04:20;;;;;;;13.35;3.03;;;;;;;;;;4133943;34;20461;-85
2021/07/28 15:06:48;;;;;;;15.38;3.15;;;;;;;;;;4134882;34;20163;-85
2021/07/28 15:09:17;;;;;;;11.73;2.87;;;;;;;;;;4134003;34;20052;-85
2021/07/28 15:11:45;;;;;;;16.33;3.33;;;;;;;;;;4136124;34;20049;-85
2021/07/28 15:14:14;;;;;;;15.65;3.33;;;;;;;;;;4136125;34;20162;-85
2021/07/28 15:16:43;;;;;;;17.12;3.05;;;;;;;;;;4136695;34;20418;-85
2021/07/28 15:19:12;;;;;;;13.73;3.22;;;;;;;;;;4135415;34;20057;-84
2021/07/28 15:21:41;;;;;;;13.30;3.03;;;;;;;;;;4136124;34;20060;-84
2021/07/28 15:24:10;;;;;;;10.65;2.55;;;;;;;;;;4136634;34;20123;-84
2021/07/28 15:26:40;;;;;;;16.75;3.83;;;;;;;;;;4132460;34;20041;-85
2021/07/28 15:29:08;;;;;;;9.73;2.85;;;;;;;;;;4138316;34;20110;-84
2021/07/28 15:31:37;;;;;;;14.87;3.40;;;;;;;;;;4139600;34;20076;-85
2021/07/28 15:34:06;;;;;;;14.77;2.87;;;;;;;;;;4135215;34;22285;-86
2021/07/28 15:36:35;;;;;;;11.63;2.55;;;;;;;;;;4135559;34;20333;-85
2021/07/28 15:39:06;;;;;;;14.48;2.55;;;;;;;;;;4131569;34;20092;-85
2021/07/28 15:41:35;;;;;;;14.65;3.10;;;;;;;;;;4136593;34;20204;-85
2021/07/28 15:44:04;;;;;;;10.85;2.97;;;;;;;;;;4131848;34;20164;-86
2021/07/28 15:46:33;;;;;;;17.37;3.15;;;;;;;;;;4136148;34;20423;-84
2021/07/28 15:49:02;;;;;;;11.60;2.90;;;;;;;;;;4133545;34;20044;-85
2021/07/28 15:51:32;;;;;;;12.50;2.60;;;;;;;;;;4135111;34;20061;-85
2021/07/28 15:54:01;;;;;;;11.50;2.67;;;;;;;;;;4135780;34;20083;-85
2021/07/28 15:56:29;;;;;;;10.00;2.30;;;;;;;;;;4122044;34;20144;-86
2021/07/28 15:58:58;;;;;;;11.65;2.80;;;;;;;;;;4120985;34;20092;-85
2021/07/28 16:01:27;;;;;;;14.02;2.70;;;;;;;;;;4121359;34;20065;-85
2021/07/28 16:03:57;;;;;;;11.75;2.80;;;;;;;;;;4122104;34;20116;-85
2021/07/28 16:06:25;;;;;;;17.05;3.03;;;;;;;;;;4116018;34;20132;-85
2021/07/28 16:08:54;;;;;;;14.10;3.65;;;;;;;;;;4122579;34;20057;-85
2021/07/28 16:11:22;;;;;;;11.20;2.33;;;;;;;;;;4120475;34;20069;-85
2021/07/28 16:13:55;;;;;;;12.95;2.62;;;;;;;;;;4119681;34;20076;-85
2021/07/28 16:16:25;;;;;;;10.65;2.78;;;;;;;;;;4121029;34;20125;-85
2021/07/28 16:18:59;;;;;;;13.40;3.72;;;;;;;;;;4120497;34;20083;-85
2021/07/28 16:21:27;;;;;;;17.30;5.22;;;;;;;;;;4123328;34;20168;-85
2021/07/28 16:23:57;;;;;;;17.42;3.12;;;;;;;;;;4119756;34;20331;-85
2021/07/28 16:26:25;;;;;;;11.52;5.18;;;;;;;;;;4122137;34;20484;-85
2021/07/28 16:28:54;;;;;;;11.55;2.65;;;;;;;;;;4120958;34;20082;-85
2021/07/28 16:31:22;;;;;;;14.18;3.20;;;;;;;;;;4122142;34;20342;-85
2021/07/28 16:33:52;;;;;;;21.10;8.07;;;;;;;;;;4119564;34;20413;-85
2021/07/28 16:36:24;;;;;;;16.05;12.48;;;;;;;;;;4122351;34;20089;-85
2021/07/28 16:38:52;;;;;;;15.50;11.93;;;;;;;;;;4120295;34;20134;-85
2021/07/28 16:41:21;;;;;;;16.30;11.73;;;;;;;;;;4118653;34;20127;-85
2021/07/28 16:43:53;;;;;;;12.20;3.80;;;;;;;;;;4121346;34;20096;-85
2021/07/28 16:46:22;;;;;;;15.65;4.43;;;;;;;;;;4119003;34;20049;-85
2021/07/28 16:48:53;;;;;;;14.52;3.67;;;;;;;;;;4119588;34;20045;-85
2021/07/28 16:51:22;;;;;;;13.55;3.25;;;;;;;;;;4116094;34;20141;-85
2021/07/28 16:53:50;;;;;;;19.45;3.80;;;;;;;;;;4121538;34;20516;-85
2021/07/28 16:56:19;;;;;;;12.60;3.03;;;;;;;;;;4131391;34;20057;-86
2021/07/28 16:58:47;;;;;;;11.80;4.47;;;;;;;;;;4136120;34;20128;-86
2021/07/28 17:01:16;;;;;;;13.30;3.60;;;;;;;;;;4137311;34;20053;-85
2021/07/28 17:03:45;;;;;;;15.20;3.65;;;;;;;;;;4136833;34;20371;-86
2021/07/28 17:06:14;;;;;;;15.60;3.70;;;;;;;;;;4133540;34;20083;-86
2021/07/28 17:08:45;;;;;;;11.40;3.25;;;;;;;;;;4121939;34;20081;-85
2021/07/28 17:11:14;;;;;;;13.45;2.87;;;;;;;;;;4140153;34;20049;-85
2021/07/28 17:13:42;;;;;;;9.30;3.03;;;;;;;;;;4136180;34;20049;-86
2021/07/28 17:16:11;;;;;;;23.38;12.07;;;;;;;;;;4138394;34;20111;-85
2021/07/28 17:18:40;;;;;;;14.18;5.68;;;;;;;;;;4135364;34;20534;-85
2021/07/28 17:21:08;;;;;;;17.83;4.70;;;;;;;;;;4139752;34;20100;-85
2021/07/28 17:23:36;;;;;;;19.42;4.45;;;;;;;;;;4137704;34;20119;-85
2021/07/28 17:26:05;;;;;;;16.58;3.80;;;;;;;;;;4136710;34;20095;-85
2021/07/28 17:28:34;;;;;;;16.27;9.40;;;;;;;;;;4134298;34;20318;-85
2021/07/28 17:31:03;;;;;;;39.33;35.20;;;;;;;;;;4138692;34;20041;-86
2021/07/28 17:33:32;;;;;;;26.52;21.15;;;;;;;;;;4133477;34;20123;-85
2021/07/28 17:36:00;;;;;;;25.52;23.05;;;;;;;;;;4133289;34;20056;-84
2021/07/28 17:38:34;;;;;;;37.20;31.67;;;;;;;;;;4137422;34;20052;-86
2021/07/28 17:41:07;;;;;;;32.97;27.62;;;;;;;;;;4135500;34;20037;-85
2021/07/28 17:43:37;;;;;;;;;;;;;;;;;;4124088;34;20384;-86
2021/07/28 17:46:10;;;;;;;43.90;39.75;;;;;;;;;;4134793;34;19966;-85
2021/07/28 17:48:38;;;;;;;34.33;31.25;;;;;;;;;;4137751;34;20099;-84
2021/07/28 17:51:09;;;;;;;26.25;23.00;;;;;;;;;;4135398;34;20099;-86
2021/07/28 17:53:40;;;;;;;25.83;17.08;;;;;;;;;;4137148;34;20084;-85